sensor_id;sensor_type;location;lat;lon;timestamp;temperature;humidity
5246;DHT22;54412;51.206;6.888;2022-09-09T00:00:25;18.30;99.90
5246;DHT22;54412;51.206;6.888;2022-09-09T00:03:04;18.20;99.90
5246;DHT22;54412;51.206;6.888;2022-09-09T00:05:44;18.10;99.90
5246;DHT22;54412;51.206;6.888;2022-09-09T00:11:51;18.30;99.90
5246;DHT22;54412;51.206;6.888;2022-09-09T00:14:42;18.40;99.90
5246;DHT22;54412;51.206;6.888;2022-09-09T00:20:16;18.40;99.90
5246;DHT22;54412;51.206;6.888;2022-09-09T00:22:56;18.40;99.90
5246;DHT22;54412;51.206;6.888;2022-09-09T00:25:46;18.30;99.90
5246;DHT22;54412;51.206;6.888;2022-09-09T00:28:20;18.40;99.90
5246;DHT22;54412;51.206;6.888;2022-09-09T00:30:50;18.20;99.90
5246;DHT22;54412;51.206;6.888;2022-09-09T00:33:19;18.20;99.90
5246;DHT22;54412;51.206;6.888;2022-09-09T00:35:53;18.00;99.90
5246;DHT22;54412;51.206;6.888;2022-09-09T00:44:31;17.90;99.90
5246;DHT22;54412;51.206;6.888;2022-09-09T00:47:31;17.90;99.90
5246;DHT22;54412;51.206;6.888;2022-09-09T00:56:21;18.00;99.90
5246;DHT22;54412;51.206;6.888;2022-09-09T00:59:40;18.10;99.90
5246;DHT22;54412;51.206;6.888;2022-09-09T01:01:47;18.20;99.90
5246;DHT22;54412;51.206;6.888;2022-09-09T01:04:20;18.20;99.90
5246;DHT22;54412;51.206;6.888;2022-09-09T01:07:02;18.20;99.90
5246;DHT22;54412;51.206;6.888;2022-09-09T01:09:52;18.20;99.90
5246;DHT22;54412;51.206;6.888;2022-09-09T01:12:40;18.20;99.90
5246;DHT22;54412;51.206;6.888;2022-09-09T01:15:12;18.20;99.90
5246;DHT22;54412;51.206;6.888;2022-09-09T01:17:54;18.30;99.90
5246;DHT22;54412;51.206;6.888;2022-09-09T01:20:31;18.40;99.90
5246;DHT22;54412;51.206;6.888;2022-09-09T01:28:49;18.10;99.90
5246;DHT22;54412;51.206;6.888;2022-09-09T01:31:26;18.00;99.90
5246;DHT22;54412;51.206;6.888;2022-09-09T01:33:58;18.10;99.90
5246;DHT22;54412;51.206;6.888;2022-09-09T01:38:53;18.00;99.90
5246;DHT22;54412;51.206;6.888;2022-09-09T01:41:19;18.00;99.90
5246;DHT22;54412;51.206;6.888;2022-09-09T01:43:45;17.80;99.90
5246;DHT22;54412;51.206;6.888;2022-09-09T01:46:12;17.90;99.90
5246;DHT22;54412;51.206;6.888;2022-09-09T01:48:39;18.00;99.90
5246;DHT22;54412;51.206;6.888;2022-09-09T01:51:08;18.00;99.90
5246;DHT22;54412;51.206;6.888;2022-09-09T01:53:36;17.90;99.90
5246;DHT22;54412;51.206;6.888;2022-09-09T01:56:28;17.80;99.90
5246;DHT22;54412;51.206;6.888;2022-09-09T02:02:00;18.00;99.90
5246;DHT22;54412;51.206;6.888;2022-09-09T02:04:41;18.00;99.90
5246;DHT22;54412;51.206;6.888;2022-09-09T02:07:19;18.10;99.90
5246;DHT22;54412;51.206;6.888;2022-09-09T02:09:50;18.10;99.90
5246;DHT22;54412;51.206;6.888;2022-09-09T02:12:24;18.10;99.90
5246;DHT22;54412;51.206;6.888;2022-09-09T02:14:57;18.10;99.90
5246;DHT22;54412;51.206;6.888;2022-09-09T02:17:36;18.10;99.90
5246;DHT22;54412;51.206;6.888;2022-09-09T02:20:13;18.10;99.90
5246;DHT22;54412;51.206;6.888;2022-09-09T02:22:42;18.10;99.90
5246;DHT22;54412;51.206;6.888;2022-09-09T02:25:12;18.00;99.90
5246;DHT22;54412;51.206;6.888;2022-09-09T02:27:43;17.80;99.90
5246;DHT22;54412;51.206;6.888;2022-09-09T02:30:12;17.80;99.90
5246;DHT22;54412;51.206;6.888;2022-09-09T02:32:39;18.00;99.90
5246;DHT22;54412;51.206;6.888;2022-09-09T02:35:10;17.90;99.90
5246;DHT22;54412;51.206;6.888;2022-09-09T02:37:42;17.90;99.90
5246;DHT22;54412;51.206;6.888;2022-09-09T02:40:12;18.00;99.90
5246;DHT22;54412;51.206;6.888;2022-09-09T02:42:42;17.90;99.90
5246;DHT22;54412;51.206;6.888;2022-09-09T02:45:11;18.00;99.90
5246;DHT22;54412;51.206;6.888;2022-09-09T02:54:30;17.90;99.90
5246;DHT22;54412;51.206;6.888;2022-09-09T02:59:37;18.00;99.90
5246;DHT22;54412;51.206;6.888;2022-09-09T03:02:04;17.80;99.90
5246;DHT22;54412;51.206;6.888;2022-09-09T03:04:30;17.70;99.90
5246;DHT22;54412;51.206;6.888;2022-09-09T03:06:57;17.70;99.90
5246;DHT22;54412;51.206;6.888;2022-09-09T03:09:24;17.80;99.90
5246;DHT22;54412;51.206;6.888;2022-09-09T03:11:51;17.90;99.90
5246;DHT22;54412;51.206;6.888;2022-09-09T03:14:17;18.00;99.90
5246;DHT22;54412;51.206;6.888;2022-09-09T03:16:46;17.90;99.90
5246;DHT22;54412;51.206;6.888;2022-09-09T03:19:13;17.70;99.90
5246;DHT22;54412;51.206;6.888;2022-09-09T03:21:39;17.80;99.90
5246;DHT22;54412;51.206;6.888;2022-09-09T03:24:05;17.70;99.90
5246;DHT22;54412;51.206;6.888;2022-09-09T03:26:31;17.80;99.90
5246;DHT22;54412;51.206;6.888;2022-09-09T03:28:58;18.00;99.90
5246;DHT22;54412;51.206;6.888;2022-09-09T03:31:25;18.00;99.90
5246;DHT22;54412;51.206;6.888;2022-09-09T03:33:56;17.90;99.90
5246;DHT22;54412;51.206;6.888;2022-09-09T03:36:23;17.90;99.90
5246;DHT22;54412;51.206;6.888;2022-09-09T03:38:51;17.70;99.90
5246;DHT22;54412;51.206;6.888;2022-09-09T03:41:19;17.70;99.90
5246;DHT22;54412;51.206;6.888;2022-09-09T03:43:47;17.90;99.90
5246;DHT22;54412;51.206;6.888;2022-09-09T03:46:13;18.00;99.90
5246;DHT22;54412;51.206;6.888;2022-09-09T03:48:38;18.00;99.90
5246;DHT22;54412;51.206;6.888;2022-09-09T03:51:04;18.00;99.90
5246;DHT22;54412;51.206;6.888;2022-09-09T03:53:30;18.00;99.90
5246;DHT22;54412;51.206;6.888;2022-09-09T03:55:57;18.00;99.90
5246;DHT22;54412;51.206;6.888;2022-09-09T03:58:25;17.80;99.90
5246;DHT22;54412;51.206;6.888;2022-09-09T04:01:03;17.80;99.90
5246;DHT22;54412;51.206;6.888;2022-09-09T04:03:38;17.90;99.90
5246;DHT22;54412;51.206;6.888;2022-09-09T04:06:05;17.80;99.90
5246;DHT22;54412;51.206;6.888;2022-09-09T04:08:33;17.80;99.90
5246;DHT22;54412;51.206;6.888;2022-09-09T04:11:01;17.80;99.90
5246;DHT22;54412;51.206;6.888;2022-09-09T04:13:36;17.80;99.90
5246;DHT22;54412;51.206;6.888;2022-09-09T04:16:04;17.80;99.90
5246;DHT22;54412;51.206;6.888;2022-09-09T04:18:30;17.90;99.90
5246;DHT22;54412;51.206;6.888;2022-09-09T04:20:57;17.60;99.90
5246;DHT22;54412;51.206;6.888;2022-09-09T04:23:25;17.60;99.90
5246;DHT22;54412;51.206;6.888;2022-09-09T04:25:53;17.70;99.90
5246;DHT22;54412;51.206;6.888;2022-09-09T04:28:23;17.70;99.90
5246;DHT22;54412;51.206;6.888;2022-09-09T04:30:51;17.90;99.90
5246;DHT22;54412;51.206;6.888;2022-09-09T04:33:18;18.00;99.90
5246;DHT22;54412;51.206;6.888;2022-09-09T04:35:46;18.00;99.90
5246;DHT22;54412;51.206;6.888;2022-09-09T04:38:16;18.00;99.90
5246;DHT22;54412;51.206;6.888;2022-09-09T04:40:46;17.80;99.90
5246;DHT22;54412;51.206;6.888;2022-09-09T04:43:13;17.80;99.90
5246;DHT22;54412;51.206;6.888;2022-09-09T04:45:40;17.80;99.90
5246;DHT22;54412;51.206;6.888;2022-09-09T04:48:08;17.70;99.90
5246;DHT22;54412;51.206;6.888;2022-09-09T04:50:35;17.70;99.90
5246;DHT22;54412;51.206;6.888;2022-09-09T04:53:02;17.70;99.90
5246;DHT22;54412;51.206;6.888;2022-09-09T04:55:30;17.80;99.90
5246;DHT22;54412;51.206;6.888;2022-09-09T04:57:56;17.80;99.90
5246;DHT22;54412;51.206;6.888;2022-09-09T05:00:23;17.80;99.90
5246;DHT22;54412;51.206;6.888;2022-09-09T05:02:52;17.80;99.90
5246;DHT22;54412;51.206;6.888;2022-09-09T05:05:17;17.70;99.90
5246;DHT22;54412;51.206;6.888;2022-09-09T05:07:43;17.70;99.90
5246;DHT22;54412;51.206;6.888;2022-09-09T05:10:09;17.80;99.90
5246;DHT22;54412;51.206;6.888;2022-09-09T05:12:35;17.90;99.90
5246;DHT22;54412;51.206;6.888;2022-09-09T05:15:01;17.90;99.90
5246;DHT22;54412;51.206;6.888;2022-09-09T05:17:27;18.00;99.90
5246;DHT22;54412;51.206;6.888;2022-09-09T05:19:53;18.00;99.90
5246;DHT22;54412;51.206;6.888;2022-09-09T05:22:20;18.00;99.90
5246;DHT22;54412;51.206;6.888;2022-09-09T05:24:46;18.00;99.90
5246;DHT22;54412;51.206;6.888;2022-09-09T05:27:12;18.00;99.90
5246;DHT22;54412;51.206;6.888;2022-09-09T05:29:38;18.00;99.90
5246;DHT22;54412;51.206;6.888;2022-09-09T05:32:04;18.00;99.90
5246;DHT22;54412;51.206;6.888;2022-09-09T05:34:30;17.90;99.90
5246;DHT22;54412;51.206;6.888;2022-09-09T05:36:55;17.90;99.90
5246;DHT22;54412;51.206;6.888;2022-09-09T05:39:21;18.00;99.90
5246;DHT22;54412;51.206;6.888;2022-09-09T05:41:47;18.00;99.90
5246;DHT22;54412;51.206;6.888;2022-09-09T05:44:12;18.00;99.90
5246;DHT22;54412;51.206;6.888;2022-09-09T05:46:39;18.00;99.90
5246;DHT22;54412;51.206;6.888;2022-09-09T05:49:05;18.00;99.90
5246;DHT22;54412;51.206;6.888;2022-09-09T05:51:31;17.80;99.90
5246;DHT22;54412;51.206;6.888;2022-09-09T05:53:57;17.80;99.90
5246;DHT22;54412;51.206;6.888;2022-09-09T05:56:26;17.70;99.90
5246;DHT22;54412;51.206;6.888;2022-09-09T05:58:54;17.80;99.90
5246;DHT22;54412;51.206;6.888;2022-09-09T06:01:41;17.90;99.90
5246;DHT22;54412;51.206;6.888;2022-09-09T06:04:07;18.00;99.90
5246;DHT22;54412;51.206;6.888;2022-09-09T06:06:36;18.00;99.90
5246;DHT22;54412;51.206;6.888;2022-09-09T06:09:06;18.00;99.90
5246;DHT22;54412;51.206;6.888;2022-09-09T06:11:36;18.10;99.90
5246;DHT22;54412;51.206;6.888;2022-09-09T06:14:04;18.00;99.90
5246;DHT22;54412;51.206;6.888;2022-09-09T06:16:30;18.00;99.90
5246;DHT22;54412;51.206;6.888;2022-09-09T06:19:01;18.10;99.90
5246;DHT22;54412;51.206;6.888;2022-09-09T06:21:36;18.00;99.90
5246;DHT22;54412;51.206;6.888;2022-09-09T06:24:02;17.80;99.90
5246;DHT22;54412;51.206;6.888;2022-09-09T06:26:34;17.90;99.90
5246;DHT22;54412;51.206;6.888;2022-09-09T06:29:06;17.80;99.90
5246;DHT22;54412;51.206;6.888;2022-09-09T06:31:33;17.80;99.90
5246;DHT22;54412;51.206;6.888;2022-09-09T06:34:03;17.80;99.90
5246;DHT22;54412;51.206;6.888;2022-09-09T06:36:32;18.00;99.90
5246;DHT22;54412;51.206;6.888;2022-09-09T06:39:00;18.10;99.90
5246;DHT22;54412;51.206;6.888;2022-09-09T06:41:28;18.00;99.90
5246;DHT22;54412;51.206;6.888;2022-09-09T06:43:55;18.10;99.90
5246;DHT22;54412;51.206;6.888;2022-09-09T06:46:23;18.10;99.90
5246;DHT22;54412;51.206;6.888;2022-09-09T06:48:53;18.10;99.90
5246;DHT22;54412;51.206;6.888;2022-09-09T06:51:22;18.00;99.90
5246;DHT22;54412;51.206;6.888;2022-09-09T06:53:54;18.10;99.90
5246;DHT22;54412;51.206;6.888;2022-09-09T06:56:25;18.00;99.90
5246;DHT22;54412;51.206;6.888;2022-09-09T06:58:55;18.20;99.90
5246;DHT22;54412;51.206;6.888;2022-09-09T07:01:27;18.20;99.90
5246;DHT22;54412;51.206;6.888;2022-09-09T07:03:56;18.10;99.90
5246;DHT22;54412;51.206;6.888;2022-09-09T07:06:44;18.20;99.90
5246;DHT22;54412;51.206;6.888;2022-09-09T07:09:13;18.20;99.90
5246;DHT22;54412;51.206;6.888;2022-09-09T07:11:45;18.30;99.90
5246;DHT22;54412;51.206;6.888;2022-09-09T07:14:14;18.40;99.90
5246;DHT22;54412;51.206;6.888;2022-09-09T07:16:41;18.40;99.90
5246;DHT22;54412;51.206;6.888;2022-09-09T07:19:08;18.40;99.90
5246;DHT22;54412;51.206;6.888;2022-09-09T07:21:34;18.40;99.90
5246;DHT22;54412;51.206;6.888;2022-09-09T07:24:00;18.40;99.90
5246;DHT22;54412;51.206;6.888;2022-09-09T07:26:29;18.40;99.90
5246;DHT22;54412;51.206;6.888;2022-09-09T07:28:56;18.30;99.90
5246;DHT22;54412;51.206;6.888;2022-09-09T07:31:28;18.20;99.90
5246;DHT22;54412;51.206;6.888;2022-09-09T07:33:59;18.50;99.90
5246;DHT22;54412;51.206;6.888;2022-09-09T07:36:29;18.60;99.90
5246;DHT22;54412;51.206;6.888;2022-09-09T07:39:02;18.60;99.90
5246;DHT22;54412;51.206;6.888;2022-09-09T07:41:41;18.70;99.90
5246;DHT22;54412;51.206;6.888;2022-09-09T07:44:13;18.90;99.90
5246;DHT22;54412;51.206;6.888;2022-09-09T07:46:45;18.90;99.90
5246;DHT22;54412;51.206;6.888;2022-09-09T07:49:11;19.10;99.90
5246;DHT22;54412;51.206;6.888;2022-09-09T07:51:39;19.20;99.90
5246;DHT22;54412;51.206;6.888;2022-09-09T07:54:11;19.20;99.90
5246;DHT22;54412;51.206;6.888;2022-09-09T07:56:39;19.10;99.90
5246;DHT22;54412;51.206;6.888;2022-09-09T07:59:06;19.20;99.90
5246;DHT22;54412;51.206;6.888;2022-09-09T08:01:35;19.10;99.90
5246;DHT22;54412;51.206;6.888;2022-09-09T08:04:06;19.30;99.90
5246;DHT22;54412;51.206;6.888;2022-09-09T08:06:38;19.30;99.90
5246;DHT22;54412;51.206;6.888;2022-09-09T08:09:06;19.30;99.90
5246;DHT22;54412;51.206;6.888;2022-09-09T08:11:33;19.30;99.90
5246;DHT22;54412;51.206;6.888;2022-09-09T08:14:01;19.20;99.90
5246;DHT22;54412;51.206;6.888;2022-09-09T08:16:30;19.20;99.90
5246;DHT22;54412;51.206;6.888;2022-09-09T08:18:58;19.20;99.90
5246;DHT22;54412;51.206;6.888;2022-09-09T08:21:27;19.10;99.90
5246;DHT22;54412;51.206;6.888;2022-09-09T08:23:55;19.20;99.90
5246;DHT22;54412;51.206;6.888;2022-09-09T08:26:27;19.20;99.90
5246;DHT22;54412;51.206;6.888;2022-09-09T08:28:56;19.30;99.90
5246;DHT22;54412;51.206;6.888;2022-09-09T08:31:24;19.10;99.90
5246;DHT22;54412;51.206;6.888;2022-09-09T08:33:56;19.20;99.90
5246;DHT22;54412;51.206;6.888;2022-09-09T08:36:26;19.20;99.90
5246;DHT22;54412;51.206;6.888;2022-09-09T08:38:56;19.20;99.90
5246;DHT22;54412;51.206;6.888;2022-09-09T08:50:15;19.30;99.90
5246;DHT22;54412;51.206;6.888;2022-09-09T08:53:09;19.30;99.90
5246;DHT22;54412;51.206;6.888;2022-09-09T08:58:30;19.30;99.90
5246;DHT22;54412;51.206;6.888;2022-09-09T09:03:53;19.40;99.90
5246;DHT22;54412;51.206;6.888;2022-09-09T09:06:50;19.50;99.90
5246;DHT22;54412;51.206;6.888;2022-09-09T09:12:25;19.60;99.90
5246;DHT22;54412;51.206;6.888;2022-09-09T09:14:54;19.60;99.90
5246;DHT22;54412;51.206;6.888;2022-09-09T09:17:26;19.60;99.90
5246;DHT22;54412;51.206;6.888;2022-09-09T09:19:57;19.60;99.90
5246;DHT22;54412;51.206;6.888;2022-09-09T09:22:37;19.50;99.90
5246;DHT22;54412;51.206;6.888;2022-09-09T09:27:58;19.50;99.90
5246;DHT22;54412;51.206;6.888;2022-09-09T09:30:29;19.30;99.90
5246;DHT22;54412;51.206;6.888;2022-09-09T09:35:57;19.50;99.90
5246;DHT22;54412;51.206;6.888;2022-09-09T09:38:26;19.50;99.90
5246;DHT22;54412;51.206;6.888;2022-09-09T09:40:58;19.60;99.90
5246;DHT22;54412;51.206;6.888;2022-09-09T09:46:05;19.90;99.90
5246;DHT22;54412;51.206;6.888;2022-09-09T09:49:00;20.10;99.90
5246;DHT22;54412;51.206;6.888;2022-09-09T09:51:31;20.00;99.90
5246;DHT22;54412;51.206;6.888;2022-09-09T09:54:25;20.00;99.90
5246;DHT22;54412;51.206;6.888;2022-09-09T09:56:55;20.00;99.90
5246;DHT22;54412;51.206;6.888;2022-09-09T09:59:34;20.20;99.90
5246;DHT22;54412;51.206;6.888;2022-09-09T10:02:13;20.40;99.90
5246;DHT22;54412;51.206;6.888;2022-09-09T10:04:41;20.40;99.90
5246;DHT22;54412;51.206;6.888;2022-09-09T10:07:11;20.70;99.90
5246;DHT22;54412;51.206;6.888;2022-09-09T10:09:45;20.70;99.90
5246;DHT22;54412;51.206;6.888;2022-09-09T10:12:29;20.70;99.90
5246;DHT22;54412;51.206;6.888;2022-09-09T10:15:29;20.90;99.90
5246;DHT22;54412;51.206;6.888;2022-09-09T10:18:30;20.70;99.90
5246;DHT22;54412;51.206;6.888;2022-09-09T10:32:57;20.80;99.90
5246;DHT22;54412;51.206;6.888;2022-09-09T10:42:04;20.50;99.90
5246;DHT22;54412;51.206;6.888;2022-09-09T10:50:49;20.50;99.90
5246;DHT22;54412;51.206;6.888;2022-09-09T10:56:28;20.60;99.90
5246;DHT22;54412;51.206;6.888;2022-09-09T10:59:21;20.60;99.90
5246;DHT22;54412;51.206;6.888;2022-09-09T11:02:02;20.50;99.90
5246;DHT22;54412;51.206;6.888;2022-09-09T11:07:30;20.40;99.90
5246;DHT22;54412;51.206;6.888;2022-09-09T11:10:42;20.40;99.90
5246;DHT22;54412;51.206;6.888;2022-09-09T11:13:30;20.30;99.90
5246;DHT22;54412;51.206;6.888;2022-09-09T11:16:19;20.30;99.90
5246;DHT22;54412;51.206;6.888;2022-09-09T11:19:04;20.50;99.90
5246;DHT22;54412;51.206;6.888;2022-09-09T11:21:53;20.50;99.90
5246;DHT22;54412;51.206;6.888;2022-09-09T11:27:12;20.30;99.90
5246;DHT22;54412;51.206;6.888;2022-09-09T11:30:03;20.20;99.90
5246;DHT22;54412;51.206;6.888;2022-09-09T11:41:06;19.80;99.90
5246;DHT22;54412;51.206;6.888;2022-09-09T11:43:46;19.90;99.90
5246;DHT22;54412;51.206;6.888;2022-09-09T11:46:18;20.00;99.90
5246;DHT22;54412;51.206;6.888;2022-09-09T11:48:58;20.20;99.90
5246;DHT22;54412;51.206;6.888;2022-09-09T11:51:28;20.30;99.90
5246;DHT22;54412;51.206;6.888;2022-09-09T11:53:58;20.40;99.90
5246;DHT22;54412;51.206;6.888;2022-09-09T11:56:45;20.40;99.90
5246;DHT22;54412;51.206;6.888;2022-09-09T11:59:31;20.30;99.90
5246;DHT22;54412;51.206;6.888;2022-09-09T12:02:03;20.10;99.90
5246;DHT22;54412;51.206;6.888;2022-09-09T12:04:59;20.10;99.90
5246;DHT22;54412;51.206;6.888;2022-09-09T12:07:40;20.10;99.90
5246;DHT22;54412;51.206;6.888;2022-09-09T12:10:27;20.20;99.90
5246;DHT22;54412;51.206;6.888;2022-09-09T12:13:19;20.00;99.90
5246;DHT22;54412;51.206;6.888;2022-09-09T12:15:50;19.90;99.90
5246;DHT22;54412;51.206;6.888;2022-09-09T12:18:32;19.90;99.90
5246;DHT22;54412;51.206;6.888;2022-09-09T12:24:03;19.80;99.90
5246;DHT22;54412;51.206;6.888;2022-09-09T12:26:49;19.80;99.90
5246;DHT22;54412;51.206;6.888;2022-09-09T12:29:40;20.00;99.90
5246;DHT22;54412;51.206;6.888;2022-09-09T12:32:16;20.30;99.90
5246;DHT22;54412;51.206;6.888;2022-09-09T12:34:53;20.70;99.90
5246;DHT22;54412;51.206;6.888;2022-09-09T12:37:35;20.70;99.90
5246;DHT22;54412;51.206;6.888;2022-09-09T12:40:16;20.70;99.90
5246;DHT22;54412;51.206;6.888;2022-09-09T12:42:45;20.60;99.90
5246;DHT22;54412;51.206;6.888;2022-09-09T12:45:18;20.80;99.90
5246;DHT22;54412;51.206;6.888;2022-09-09T12:50:31;21.00;99.90
5246;DHT22;54412;51.206;6.888;2022-09-09T12:53:02;20.90;99.90
5246;DHT22;54412;51.206;6.888;2022-09-09T12:55:36;20.80;99.90
5246;DHT22;54412;51.206;6.888;2022-09-09T12:58:05;20.70;99.90
5246;DHT22;54412;51.206;6.888;2022-09-09T13:00:33;20.60;99.90
5246;DHT22;54412;51.206;6.888;2022-09-09T13:03:02;20.40;99.90
5246;DHT22;54412;51.206;6.888;2022-09-09T13:05:41;20.20;99.90
5246;DHT22;54412;51.206;6.888;2022-09-09T13:08:12;19.80;99.90
5246;DHT22;54412;51.206;6.888;2022-09-09T13:10:53;19.30;99.90
5246;DHT22;54412;51.206;6.888;2022-09-09T13:13:34;19.30;99.90
5246;DHT22;54412;51.206;6.888;2022-09-09T13:16:03;19.90;99.90
5246;DHT22;54412;51.206;6.888;2022-09-09T13:18:34;20.40;99.90
5246;DHT22;54412;51.206;6.888;2022-09-09T13:21:03;20.30;99.90
5246;DHT22;54412;51.206;6.888;2022-09-09T13:23:31;20.00;99.90
5246;DHT22;54412;51.206;6.888;2022-09-09T13:26:02;19.80;99.90
5246;DHT22;54412;51.206;6.888;2022-09-09T13:28:32;19.80;99.90
5246;DHT22;54412;51.206;6.888;2022-09-09T13:31:03;20.00;99.90
5246;DHT22;54412;51.206;6.888;2022-09-09T13:33:37;19.90;99.90
5246;DHT22;54412;51.206;6.888;2022-09-09T13:36:08;19.60;99.90
5246;DHT22;54412;51.206;6.888;2022-09-09T13:38:40;19.60;99.90
5246;DHT22;54412;51.206;6.888;2022-09-09T13:41:21;19.70;99.90
5246;DHT22;54412;51.206;6.888;2022-09-09T13:43:49;19.80;99.90
5246;DHT22;54412;51.206;6.888;2022-09-09T13:46:39;19.80;99.90
5246;DHT22;54412;51.206;6.888;2022-09-09T13:54:13;20.10;99.90
5246;DHT22;54412;51.206;6.888;2022-09-09T13:56:41;20.00;99.90
5246;DHT22;54412;51.206;6.888;2022-09-09T13:59:17;20.10;99.90
5246;DHT22;54412;51.206;6.888;2022-09-09T14:01:45;20.00;99.90
5246;DHT22;54412;51.206;6.888;2022-09-09T14:04:12;20.00;99.90
5246;DHT22;54412;51.206;6.888;2022-09-09T14:06:39;20.00;99.90
5246;DHT22;54412;51.206;6.888;2022-09-09T14:09:06;20.20;99.90
5246;DHT22;54412;51.206;6.888;2022-09-09T14:11:33;20.10;99.90
5246;DHT22;54412;51.206;6.888;2022-09-09T14:13:58;20.10;99.90
5246;DHT22;54412;51.206;6.888;2022-09-09T14:16:26;20.20;99.90
5246;DHT22;54412;51.206;6.888;2022-09-09T14:18:53;20.20;99.90
5246;DHT22;54412;51.206;6.888;2022-09-09T14:21:21;20.10;99.90
5246;DHT22;54412;51.206;6.888;2022-09-09T14:23:47;20.00;99.90
5246;DHT22;54412;51.206;6.888;2022-09-09T14:26:13;20.00;99.90
5246;DHT22;54412;51.206;6.888;2022-09-09T14:28:39;20.20;99.90
5246;DHT22;54412;51.206;6.888;2022-09-09T14:31:05;20.20;99.90
5246;DHT22;54412;51.206;6.888;2022-09-09T14:33:32;20.30;99.90
5246;DHT22;54412;51.206;6.888;2022-09-09T14:36:00;20.30;99.90
5246;DHT22;54412;51.206;6.888;2022-09-09T14:38:32;20.30;99.90
5246;DHT22;54412;51.206;6.888;2022-09-09T14:41:00;20.20;99.90
5246;DHT22;54412;51.206;6.888;2022-09-09T14:43:29;20.10;99.90
5246;DHT22;54412;51.206;6.888;2022-09-09T14:46:19;20.20;99.90
5246;DHT22;54412;51.206;6.888;2022-09-09T14:48:44;20.20;99.90
5246;DHT22;54412;51.206;6.888;2022-09-09T14:51:24;20.20;99.90
5246;DHT22;54412;51.206;6.888;2022-09-09T14:53:57;20.00;99.90
5246;DHT22;54412;51.206;6.888;2022-09-09T14:56:30;19.40;99.90
5246;DHT22;54412;51.206;6.888;2022-09-09T14:58:58;18.80;99.90
5246;DHT22;54412;51.206;6.888;2022-09-09T15:01:26;18.60;99.90
5246;DHT22;54412;51.206;6.888;2022-09-09T15:03:59;18.40;99.90
5246;DHT22;54412;51.206;6.888;2022-09-09T15:06:29;17.80;99.90
5246;DHT22;54412;51.206;6.888;2022-09-09T15:08:58;17.80;99.90
5246;DHT22;54412;51.206;6.888;2022-09-09T15:11:27;17.90;99.90
5246;DHT22;54412;51.206;6.888;2022-09-09T15:13:56;18.00;99.90
5246;DHT22;54412;51.206;6.888;2022-09-09T15:16:24;18.20;99.90
5246;DHT22;54412;51.206;6.888;2022-09-09T15:18:54;18.30;99.90
5246;DHT22;54412;51.206;6.888;2022-09-09T15:21:24;18.40;99.90
5246;DHT22;54412;51.206;6.888;2022-09-09T15:23:52;18.40;99.90
5246;DHT22;54412;51.206;6.888;2022-09-09T15:26:18;18.50;99.90
5246;DHT22;54412;51.206;6.888;2022-09-09T15:28:45;18.60;99.90
5246;DHT22;54412;51.206;6.888;2022-09-09T15:31:25;18.50;99.90
5246;DHT22;54412;51.206;6.888;2022-09-09T15:33:55;18.40;99.90
5246;DHT22;54412;51.206;6.888;2022-09-09T15:36:31;18.30;99.90
5246;DHT22;54412;51.206;6.888;2022-09-09T15:39:00;18.30;99.90
5246;DHT22;54412;51.206;6.888;2022-09-09T15:41:28;18.10;99.90
5246;DHT22;54412;51.206;6.888;2022-09-09T15:43:55;18.10;99.90
5246;DHT22;54412;51.206;6.888;2022-09-09T15:46:35;18.10;99.90
5246;DHT22;54412;51.206;6.888;2022-09-09T15:49:16;18.20;99.90
5246;DHT22;54412;51.206;6.888;2022-09-09T15:51:54;17.90;99.90
5246;DHT22;54412;51.206;6.888;2022-09-09T15:54:23;18.00;99.90
5246;DHT22;54412;51.206;6.888;2022-09-09T15:56:55;17.70;99.90
5246;DHT22;54412;51.206;6.888;2022-09-09T15:59:24;17.90;99.90
5246;DHT22;54412;51.206;6.888;2022-09-09T16:01:51;18.00;99.90
5246;DHT22;54412;51.206;6.888;2022-09-09T16:04:21;17.90;99.90
5246;DHT22;54412;51.206;6.888;2022-09-09T16:06:52;18.00;99.90
5246;DHT22;54412;51.206;6.888;2022-09-09T16:09:20;18.00;99.90
5246;DHT22;54412;51.206;6.888;2022-09-09T16:11:46;18.10;99.90
5246;DHT22;54412;51.206;6.888;2022-09-09T16:14:13;18.30;99.90
5246;DHT22;54412;51.206;6.888;2022-09-09T16:16:41;18.20;99.90
5246;DHT22;54412;51.206;6.888;2022-09-09T16:19:12;18.20;99.90
5246;DHT22;54412;51.206;6.888;2022-09-09T16:21:46;18.10;99.90
5246;DHT22;54412;51.206;6.888;2022-09-09T16:24:16;17.90;99.90
5246;DHT22;54412;51.206;6.888;2022-09-09T16:26:48;18.10;99.90
5246;DHT22;54412;51.206;6.888;2022-09-09T16:29:16;18.00;99.90
5246;DHT22;54412;51.206;6.888;2022-09-09T16:31:44;18.00;99.90
5246;DHT22;54412;51.206;6.888;2022-09-09T16:34:11;18.00;99.90
5246;DHT22;54412;51.206;6.888;2022-09-09T16:36:38;18.10;99.90
5246;DHT22;54412;51.206;6.888;2022-09-09T16:39:10;18.10;99.90
5246;DHT22;54412;51.206;6.888;2022-09-09T16:41:38;17.90;99.90
5246;DHT22;54412;51.206;6.888;2022-09-09T16:44:08;17.90;99.90
5246;DHT22;54412;51.206;6.888;2022-09-09T16:46:37;17.90;99.90
5246;DHT22;54412;51.206;6.888;2022-09-09T16:49:09;17.90;99.90
5246;DHT22;54412;51.206;6.888;2022-09-09T16:51:39;18.00;99.90
5246;DHT22;54412;51.206;6.888;2022-09-09T16:54:07;18.00;99.90
5246;DHT22;54412;51.206;6.888;2022-09-09T16:56:39;18.00;99.90
5246;DHT22;54412;51.206;6.888;2022-09-09T16:59:10;18.00;99.90
5246;DHT22;54412;51.206;6.888;2022-09-09T17:01:38;18.00;99.90
5246;DHT22;54412;51.206;6.888;2022-09-09T17:04:08;18.00;99.90
5246;DHT22;54412;51.206;6.888;2022-09-09T17:06:36;17.90;99.90
5246;DHT22;54412;51.206;6.888;2022-09-09T17:09:07;17.90;99.90
5246;DHT22;54412;51.206;6.888;2022-09-09T17:11:35;18.00;99.90
5246;DHT22;54412;51.206;6.888;2022-09-09T17:14:02;18.00;99.90
5246;DHT22;54412;51.206;6.888;2022-09-09T17:16:30;18.10;99.90
5246;DHT22;54412;51.206;6.888;2022-09-09T17:18:57;18.20;99.90
5246;DHT22;54412;51.206;6.888;2022-09-09T17:21:28;18.30;99.90
5246;DHT22;54412;51.206;6.888;2022-09-09T17:23:55;18.30;99.90
5246;DHT22;54412;51.206;6.888;2022-09-09T17:26:23;18.20;99.90
5246;DHT22;54412;51.206;6.888;2022-09-09T17:28:55;18.20;99.90
5246;DHT22;54412;51.206;6.888;2022-09-09T17:31:24;18.20;99.90
5246;DHT22;54412;51.206;6.888;2022-09-09T17:33:51;18.10;99.90
5246;DHT22;54412;51.206;6.888;2022-09-09T17:36:29;18.10;99.90
5246;DHT22;54412;51.206;6.888;2022-09-09T17:38:57;18.10;99.90
5246;DHT22;54412;51.206;6.888;2022-09-09T17:41:27;18.00;99.90
5246;DHT22;54412;51.206;6.888;2022-09-09T17:43:57;18.00;99.90
5246;DHT22;54412;51.206;6.888;2022-09-09T17:46:29;18.00;99.90
5246;DHT22;54412;51.206;6.888;2022-09-09T17:49:02;17.90;99.90
5246;DHT22;54412;51.206;6.888;2022-09-09T17:51:31;17.90;99.90
5246;DHT22;54412;51.206;6.888;2022-09-09T17:54:04;17.90;99.90
5246;DHT22;54412;51.206;6.888;2022-09-09T17:56:33;17.90;99.90
5246;DHT22;54412;51.206;6.888;2022-09-09T17:59:00;18.00;99.90
5246;DHT22;54412;51.206;6.888;2022-09-09T18:01:30;18.00;99.90
5246;DHT22;54412;51.206;6.888;2022-09-09T18:04:00;18.00;99.90
5246;DHT22;54412;51.206;6.888;2022-09-09T18:06:33;17.90;99.90
5246;DHT22;54412;51.206;6.888;2022-09-09T18:09:06;17.90;99.90
5246;DHT22;54412;51.206;6.888;2022-09-09T18:11:39;18.00;99.90